Time;durP1;ratioP1;P1;durP2;ratioP2;P2;SDS_P1;SDS_P2;PMS_P1;PMS_P2;Temp;Humidity;BMP_temperature;BMP_pressure;BME280_temperature;BME280_humidity;BME280_pressure;Samples;Min_cycle;Max_cycle;Signal;HPM_P1;HPM_P2
2021/08/30 00:01:45;;;;;;;8.30;7.60;;;13.30;99.90;;;;;;5099353;28;20168;-45
2021/08/30 00:04:11;;;;;;;9.87;8.87;;;13.40;99.90;;;;;;5098290;28;20211;-45
2021/08/30 00:06:36;;;;;;;10.10;9.23;;;13.30;99.90;;;;;;5099084;28;20406;-45
2021/08/30 00:09:05;;;;;;;10.30;9.40;;;13.30;99.90;;;;;;5098990;28;20247;-46
2021/08/30 00:11:31;;;;;;;9.67;8.77;;;13.30;99.90;;;;;;5099674;28;20176;-45
2021/08/30 00:13:56;;;;;;;9.43;8.60;;;13.30;99.90;;;;;;5099228;28;20439;-45
2021/08/30 00:16:22;;;;;;;9.13;8.33;;;13.30;99.90;;;;;;5098862;28;20469;-45
2021/08/30 00:18:47;;;;;;;9.83;8.87;;;13.30;99.90;;;;;;5099099;28;20172;-46
2021/08/30 00:21:13;;;;;;;9.33;8.53;;;13.30;99.90;;;;;;5098818;28;20169;-46
2021/08/30 00:23:39;;;;;;;9.17;8.37;;;13.30;99.90;;;;;;5098581;28;20440;-46
2021/08/30 00:26:05;;;;;;;9.10;8.30;;;13.30;99.90;;;;;;5098736;28;20484;-45
2021/08/30 00:28:34;;;;;;;9.23;8.50;;;13.30;99.90;;;;;;5098388;28;20172;-46
2021/08/30 00:30:59;;;;;;;9.30;8.40;;;13.30;99.90;;;;;;5098692;28;20216;-45
2021/08/30 00:33:25;;;;;;;8.20;7.37;;;13.20;99.90;;;;;;5098086;28;20491;-46
2021/08/30 00:35:51;;;;;;;8.03;7.00;;;13.20;99.90;;;;;;5098585;28;20219;-46
2021/08/30 00:38:19;;;;;;;7.90;7.20;;;13.30;99.90;;;;;;5098489;28;20745;-46
2021/08/30 00:40:44;;;;;;;7.03;6.28;;;13.30;99.90;;;;;;5098385;28;20521;-45
2021/08/30 00:43:10;;;;;;;6.70;6.10;;;13.30;99.90;;;;;;5097737;28;20173;-46
2021/08/30 00:45:36;;;;;;;6.90;6.30;;;13.30;99.90;;;;;;5098158;28;20187;-45
2021/08/30 00:48:03;;;;;;;7.27;6.67;;;13.20;99.90;;;;;;5098550;28;20429;-45
2021/08/30 00:50:29;;;;;;;6.83;6.23;;;13.20;99.90;;;;;;5096869;28;20831;-45
2021/08/30 00:52:55;;;;;;;7.10;6.50;;;13.30;99.90;;;;;;5096950;28;20415;-45
2021/08/30 00:55:21;;;;;;;6.90;6.17;;;13.30;99.90;;;;;;5096842;28;20210;-45
2021/08/30 00:57:47;;;;;;;7.10;6.50;;;13.30;99.90;;;;;;5097129;28;20430;-45
2021/08/30 01:00:14;;;;;;;7.20;6.60;;;13.20;99.90;;;;;;5097202;28;20177;-45
2021/08/30 01:02:41;;;;;;;7.67;6.97;;;13.20;99.90;;;;;;5097403;28;20491;-46
2021/08/30 01:05:08;;;;;;;8.37;7.60;;;13.30;99.90;;;;;;5098432;28;20468;-46
2021/08/30 01:07:53;;;;;;;8.00;7.30;;;13.20;99.90;;;;;;5098553;28;20816;-45
2021/08/30 01:11:11;;;;;;;7.83;7.13;;;13.20;99.90;;;;;;5098209;28;20864;-45
2021/08/30 01:14:02;;;;;;;8.30;6.68;;;13.20;99.90;;;;;;5084811;28;20426;-45
2021/08/30 01:16:29;;;;;;;8.73;7.93;;;13.20;99.90;;;;;;5098165;28;20243;-45
2021/08/30 01:18:59;;;;;;;8.32;7.63;;;13.20;99.90;;;;;;5098510;28;20411;-45
2021/08/30 01:21:34;;;;;;;9.40;8.50;;;13.20;99.90;;;;;;5097026;28;20176;-45
2021/08/30 01:24:06;;;;;;;11.33;9.13;;;13.20;99.90;;;;;;5097403;28;20410;-45
2021/08/30 01:26:34;;;;;;;9.77;8.87;;;13.20;99.90;;;;;;5097265;28;20437;-45
2021/08/30 01:29:07;;;;;;;12.00;10.80;;;13.20;99.90;;;;;;5097961;28;20466;-45
2021/08/30 01:31:57;;;;;;;11.50;10.37;;;13.20;99.90;;;;;;5097974;28;20959;-45
2021/08/30 01:34:25;;;;;;;12.77;11.67;;;13.20;99.90;;;;;;5097547;28;20423;-45
2021/08/30 01:36:51;;;;;;;13.37;12.17;;;13.20;99.90;;;;;;5097604;28;20423;-45
2021/08/30 01:39:17;;;;;;;11.85;10.65;;;13.30;99.90;;;;;;5097646;28;20413;-46
2021/08/30 01:41:44;;;;;;;12.87;11.70;;;13.30;99.90;;;;;;5097942;28;20180;-45
2021/08/30 01:44:11;;;;;;;12.37;11.07;;;13.30;99.90;;;;;;5097267;28;20476;-45
2021/08/30 01:46:38;;;;;;;12.30;11.20;;;13.30;99.90;;;;;;5097164;28;20417;-45
2021/08/30 01:49:04;;;;;;;12.17;10.73;;;13.30;99.90;;;;;;5096645;28;20423;-45
2021/08/30 01:51:31;;;;;;;11.30;10.20;;;13.30;99.90;;;;;;5098003;28;20825;-45
2021/08/30 01:53:58;;;;;;;11.40;10.30;;;13.30;99.90;;;;;;5099776;28;20423;-45
2021/08/30 01:56:27;;;;;;;11.70;10.70;;;13.30;99.90;;;;;;5101371;28;20584;-45
2021/08/30 02:01:38;;;;;;;12.80;11.70;;;13.30;99.90;;;;;;5100928;28;20425;-45
2021/08/30 02:04:04;;;;;;;13.60;12.40;;;13.30;99.90;;;;;;5101082;28;20414;-45
2021/08/30 02:06:31;;;;;;;14.95;13.65;;;13.30;99.90;;;;;;5101953;28;20425;-45
2021/08/30 02:08:57;;;;;;;13.87;12.57;;;13.30;99.90;;;;;;5102048;28;20177;-45
2021/08/30 02:11:32;;;;;;;14.63;13.23;;;13.30;99.90;;;;;;5101722;28;20863;-45
2021/08/30 02:13:58;;;;;;;14.80;13.50;;;13.30;99.90;;;;;;5101536;28;20437;-46
2021/08/30 02:16:24;;;;;;;15.90;14.40;;;13.30;99.90;;;;;;5101438;28;20497;-45
2021/08/30 02:19:08;;;;;;;15.97;14.57;;;13.30;99.90;;;;;;5101386;28;20426;-45
2021/08/30 02:21:35;;;;;;;16.37;14.23;;;13.30;99.90;;;;;;5101218;28;20407;-45
2021/08/30 02:24:18;;;;;;;16.93;14.23;;;13.40;99.90;;;;;;5101815;28;20410;-45
2021/08/30 02:26:54;;;;;;;15.57;14.17;;;13.30;99.90;;;;;;5101522;28;20414;-45
2021/08/30 02:29:25;;;;;;;15.33;13.93;;;13.30;99.90;;;;;;5100697;28;20605;-46
2021/08/30 02:31:56;;;;;;;16.07;14.67;;;13.30;99.90;;;;;;5100269;28;20453;-45
2021/08/30 02:34:27;;;;;;;16.77;15.17;;;13.30;99.90;;;;;;5100692;28;20434;-45
2021/08/30 02:36:53;;;;;;;16.57;15.17;;;13.30;99.90;;;;;;5101412;28;20475;-45
2021/08/30 02:39:20;;;;;;;15.87;14.53;;;13.30;99.90;;;;;;5101754;28;20857;-45
2021/08/30 02:41:46;;;;;;;14.93;13.55;;;13.30;99.90;;;;;;5100924;28;20419;-45
2021/08/30 02:44:14;;;;;;;14.83;13.63;;;13.30;99.90;;;;;;5100241;28;20268;-45
2021/08/30 02:46:41;;;;;;;14.67;13.47;;;13.40;99.90;;;;;;5100345;28;20517;-45
2021/08/30 02:49:07;;;;;;;14.40;13.10;;;13.30;99.90;;;;;;5101242;28;20413;-45
2021/08/30 02:51:33;;;;;;;14.38;13.07;;;13.40;99.90;;;;;;5101104;28;20173;-45
2021/08/30 02:53:59;;;;;;;15.97;14.47;;;13.40;99.90;;;;;;5100297;28;20237;-46
2021/08/30 02:56:25;;;;;;;14.27;13.03;;;13.40;99.90;;;;;;5100634;28;20208;-45
2021/08/30 02:58:51;;;;;;;15.07;13.70;;;13.40;99.90;;;;;;5100285;28;20413;-45
2021/08/30 03:01:19;;;;;;;14.00;12.70;;;13.30;99.90;;;;;;5099647;28;20176;-45
2021/08/30 03:03:46;;;;;;;15.47;14.17;;;13.30;99.90;;;;;;5100624;28;20751;-45
2021/08/30 03:06:12;;;;;;;15.30;13.90;;;13.30;99.90;;;;;;5099051;28;20448;-45
2021/08/30 03:08:38;;;;;;;14.52;13.13;;;13.30;99.90;;;;;;5100560;28;20747;-45
2021/08/30 03:11:04;;;;;;;14.80;13.40;;;13.20;99.90;;;;;;5099701;28;20212;-45
2021/08/30 03:13:31;;;;;;;16.40;14.90;;;13.20;99.90;;;;;;5099555;28;20274;-45
2021/08/30 03:15:57;;;;;;;14.17;12.97;;;13.20;99.90;;;;;;5100130;28;21050;-45
2021/08/30 03:18:23;;;;;;;16.30;14.90;;;13.20;99.90;;;;;;5098526;28;20483;-45
2021/08/30 03:20:51;;;;;;;15.03;13.63;;;13.20;99.90;;;;;;5098898;28;20418;-43
2021/08/30 03:23:17;;;;;;;15.27;13.77;;;13.20;99.90;;;;;;5098634;28;20176;-46
2021/08/30 03:25:43;;;;;;;17.70;15.97;;;13.20;99.90;;;;;;5100115;28;20477;-45
2021/08/30 03:28:10;;;;;;;16.70;15.10;;;13.20;99.90;;;;;;5098567;28;20423;-45
2021/08/30 03:30:37;;;;;;;15.90;14.30;;;13.20;99.90;;;;;;5099133;28;20475;-45
2021/08/30 03:33:03;;;;;;;16.08;14.55;;;13.20;99.90;;;;;;5098173;28;20423;-45
2021/08/30 03:35:30;;;;;;;16.00;14.50;;;13.20;99.90;;;;;;5098222;28;20208;-45
2021/08/30 03:37:56;;;;;;;15.37;13.87;;;13.20;99.90;;;;;;5097152;28;20804;-45
2021/08/30 03:40:22;;;;;;;16.05;14.40;;;13.20;99.90;;;;;;5097761;28;20453;-45
2021/08/30 03:42:49;;;;;;;14.17;12.83;;;13.20;99.90;;;;;;5096729;28;20170;-45
2021/08/30 03:45:15;;;;;;;14.20;12.90;;;13.20;99.90;;;;;;5097084;28;20847;-45
2021/08/30 03:47:41;;;;;;;14.27;12.97;;;13.20;99.90;;;;;;5098088;28;20414;-46
2021/08/30 03:50:08;;;;;;;14.95;13.55;;;13.20;99.90;;;;;;5098957;28;20591;-46
2021/08/30 03:52:37;;;;;;;14.80;13.40;;;13.20;99.90;;;;;;5098807;28;20200;-45
2021/08/30 03:55:04;;;;;;;14.27;13.00;;;13.20;99.90;;;;;;5099247;28;20466;-45
2021/08/30 03:57:30;;;;;;;13.23;12.03;;;13.20;99.90;;;;;;5099721;28;20438;-46
2021/08/30 03:59:57;;;;;;;13.10;11.90;;;13.20;99.90;;;;;;5100061;28;20471;-45
2021/08/30 04:02:26;;;;;;;12.47;11.27;;;13.20;99.90;;;;;;5099422;28;20517;-46
2021/08/30 04:04:52;;;;;;;12.53;11.40;;;13.20;99.90;;;;;;5098654;28;20426;-46
2021/08/30 04:07:19;;;;;;;12.73;11.43;;;13.20;99.90;;;;;;5099421;28;20446;-46
2021/08/30 04:09:45;;;;;;;12.40;11.30;;;13.20;99.90;;;;;;5099523;28;20433;-46
2021/08/30 04:12:11;;;;;;;11.40;10.37;;;13.20;99.90;;;;;;5099224;28;20863;-46
2021/08/30 04:14:38;;;;;;;11.27;10.23;;;13.30;99.90;;;;;;5099267;28;20197;-46
2021/08/30 04:17:03;;;;;;;10.93;9.97;;;13.30;99.90;;;;;;5098625;28;20418;-46
2021/08/30 04:19:29;;;;;;;10.57;9.57;;;13.30;99.90;;;;;;5098578;28;20711;-46
2021/08/30 04:21:55;;;;;;;11.40;10.20;;;13.30;99.90;;;;;;5099433;28;20207;-47
2021/08/30 04:24:20;;;;;;;10.57;9.68;;;13.30;99.90;;;;;;5099306;28;20172;-46
2021/08/30 04:26:46;;;;;;;12.13;11.10;;;13.30;99.90;;;;;;5098208;28;20267;-47
2021/08/30 04:29:11;;;;;;;10.90;9.90;;;13.30;99.90;;;;;;5098556;28;20238;-47
2021/08/30 04:31:37;;;;;;;12.23;11.13;;;13.30;99.90;;;;;;5098763;28;20624;-47
2021/08/30 04:34:03;;;;;;;12.03;10.87;;;13.40;99.90;;;;;;5099074;28;20173;-47
2021/08/30 04:36:29;;;;;;;10.13;9.13;;;13.40;99.90;;;;;;5098924;28;20218;-46
2021/08/30 04:38:55;;;;;;;10.90;9.80;;;13.40;99.90;;;;;;5098971;28;20296;-47
2021/08/30 04:41:21;;;;;;;11.40;10.30;;;13.40;99.90;;;;;;5098457;28;20418;-47
2021/08/30 04:43:47;;;;;;;13.50;12.10;;;13.40;99.90;;;;;;5097365;28;20444;-46
2021/08/30 04:46:13;;;;;;;14.87;13.37;;;13.40;99.90;;;;;;5096625;28;20207;-46
2021/08/30 04:48:39;;;;;;;16.40;13.27;;;13.40;99.90;;;;;;5092317;28;20423;-46
2021/08/30 04:51:04;;;;;;;15.10;12.40;;;13.40;99.90;;;;;;5074490;28;20200;-46
2021/08/30 04:53:30;;;;;;;15.23;13.73;;;13.40;99.90;;;;;;5076049;28;20181;-46
2021/08/30 04:55:56;;;;;;;17.73;15.83;;;13.50;99.90;;;;;;5076336;28;20242;-46
2021/08/30 04:58:22;;;;;;;15.80;14.20;;;13.40;99.90;;;;;;5076738;28;20173;-46
2021/08/30 05:00:48;;;;;;;16.50;14.90;;;13.50;99.90;;;;;;5076504;28;20420;-46
2021/08/30 05:03:14;;;;;;;17.60;15.63;;;13.50;99.90;;;;;;5076810;28;20185;-51
2021/08/30 05:05:39;;;;;;;16.90;15.20;;;13.50;99.90;;;;;;5077854;28;20514;-46
2021/08/30 05:08:05;;;;;;;16.00;14.40;;;13.50;99.90;;;;;;5077478;28;20442;-47
2021/08/30 05:10:31;;;;;;;16.57;14.87;;;13.50;99.90;;;;;;5077921;28;20518;-46
2021/08/30 05:12:57;;;;;;;15.90;14.20;;;13.50;99.90;;;;;;5059540;28;20526;-46
2021/08/30 05:15:23;;;;;;;18.70;16.80;;;13.50;99.90;;;;;;5089928;28;20222;-46
2021/08/30 05:17:49;;;;;;;19.03;17.13;;;13.60;99.90;;;;;;5084753;28;20534;-46
2021/08/30 05:20:16;;;;;;;19.70;17.60;;;13.60;99.90;;;;;;5087570;28;20411;-47
2021/08/30 05:22:42;;;;;;;17.13;15.43;;;13.60;99.90;;;;;;5081884;28;20427;-46
2021/08/30 05:25:08;;;;;;;18.17;15.80;;;13.50;99.90;;;;;;5077420;28;20423;-46
2021/08/30 05:27:34;;;;;;;16.57;14.87;;;13.50;99.90;;;;;;5075081;28;20514;-46
2021/08/30 05:29:59;;;;;;;15.83;14.27;;;13.50;99.90;;;;;;5075635;28;20602;-46
2021/08/30 05:32:25;;;;;;;16.20;14.60;;;13.60;99.90;;;;;;5075009;28;20185;-46
2021/08/30 05:34:51;;;;;;;16.13;14.57;;;13.60;99.90;;;;;;5075671;28;20553;-46
2021/08/30 05:37:17;;;;;;;16.00;14.40;;;13.60;99.90;;;;;;5075803;28;20426;-46
2021/08/30 05:39:42;;;;;;;16.80;15.10;;;13.60;99.90;;;;;;5075920;28;20431;-46
2021/08/30 05:42:08;;;;;;;16.90;14.13;;;13.60;99.90;;;;;;5075751;28;20188;-46
2021/08/30 05:44:34;;;;;;;15.80;14.20;;;13.60;99.90;;;;;;5076831;28;20420;-46
2021/08/30 05:46:59;;;;;;;16.70;15.00;;;13.60;99.90;;;;;;5076805;28;20559;-46
2021/08/30 05:49:25;;;;;;;17.03;15.33;;;13.60;99.90;;;;;;5076226;28;20169;-46
2021/08/30 05:51:51;;;;;;;16.53;14.83;;;13.60;99.90;;;;;;5075300;28;20174;-47
2021/08/30 05:54:17;;;;;;;18.47;16.67;;;13.60;99.90;;;;;;5074501;28;20402;-46
2021/08/30 05:56:42;;;;;;;17.50;15.70;;;13.60;99.90;;;;;;5075181;28;20420;-46
2021/08/30 05:59:08;;;;;;;17.70;16.00;;;13.60;99.90;;;;;;5075019;28;20184;-46
2021/08/30 06:01:36;;;;;;;16.23;14.63;;;13.60;99.90;;;;;;5074293;28;20181;-46
2021/08/30 06:04:05;;;;;;;16.30;14.70;;;13.70;99.90;;;;;;5075442;28;20763;-47
2021/08/30 06:06:30;;;;;;;19.23;15.80;;;13.70;99.90;;;;;;5093878;28;20446;-46
2021/08/30 06:08:57;;;;;;;18.37;15.47;;;13.80;99.90;;;;;;5096938;28;20410;-47
2021/08/30 06:11:22;;;;;;;16.17;14.50;;;13.80;99.90;;;;;;5096919;28;20188;-46
2021/08/30 06:13:48;;;;;;;16.37;14.67;;;13.90;99.90;;;;;;5096726;28;20445;-46
2021/08/30 06:16:13;;;;;;;15.97;14.37;;;13.90;99.90;;;;;;5097077;28;20465;-46
2021/08/30 06:18:39;;;;;;;15.43;13.27;;;14.00;99.90;;;;;;5096900;28;20517;-46
2021/08/30 06:21:05;;;;;;;13.97;12.63;;;14.00;99.90;;;;;;5097322;28;20172;-47
2021/08/30 06:23:31;;;;;;;14.70;12.97;;;14.00;99.90;;;;;;5096652;28;20200;-46
2021/08/30 06:26:01;;;;;;;13.03;11.73;;;14.00;99.90;;;;;;5096370;28;20249;-46
2021/08/30 06:28:27;;;;;;;13.23;11.93;;;14.00;99.90;;;;;;5096019;28;20422;-46
2021/08/30 06:30:53;;;;;;;12.82;11.52;;;13.90;99.90;;;;;;5094372;28;20799;-47
2021/08/30 06:33:19;;;;;;;12.10;10.90;;;13.90;99.90;;;;;;5095339;28;20582;-47
2021/08/30 06:35:45;;;;;;;12.57;10.30;;;13.90;99.90;;;;;;5094417;28;20466;-46
2021/08/30 06:38:11;;;;;;;10.93;9.80;;;14.00;99.90;;;;;;5095059;28;20184;-46
2021/08/30 06:40:37;;;;;;;11.60;10.50;;;14.00;99.90;;;;;;5096841;28;20165;-46
2021/08/30 06:43:04;;;;;;;12.20;11.00;;;14.10;99.90;;;;;;5098762;28;20696;-46
2021/08/30 06:45:29;;;;;;;12.30;11.10;;;14.20;99.90;;;;;;5098068;28;20433;-47
2021/08/30 06:47:55;;;;;;;12.80;11.50;;;14.30;99.90;;;;;;5099821;28;20419;-46
2021/08/30 06:50:21;;;;;;;11.97;10.50;;;14.50;99.90;;;;;;5098771;28;20267;-46
2021/08/30 06:52:47;;;;;;;11.27;10.18;;;14.60;99.90;;;;;;5098550;28;20501;-46
2021/08/30 06:55:13;;;;;;;12.47;11.17;;;14.70;99.90;;;;;;5098482;28;20650;-46
2021/08/30 06:57:39;;;;;;;12.70;11.50;;;14.70;99.90;;;;;;5097980;28;20484;-46
2021/08/30 07:00:08;;;;;;;14.43;13.03;;;14.80;99.90;;;;;;5099077;28;20855;-47
2021/08/30 07:02:35;;;;;;;12.83;11.57;;;14.90;99.90;;;;;;5099132;28;20414;-45
2021/08/30 07:05:00;;;;;;;13.50;12.10;;;15.10;99.90;;;;;;5099643;28;20450;-45
2021/08/30 07:07:26;;;;;;;12.95;11.75;;;15.20;99.90;;;;;;5099857;28;20465;-46
2021/08/30 07:09:52;;;;;;;13.50;12.10;;;15.30;99.90;;;;;;5097654;28;20226;-45
2021/08/30 07:12:18;;;;;;;14.20;12.80;;;15.40;99.90;;;;;;5097277;28;20521;-45
2021/08/30 07:14:43;;;;;;;13.30;11.90;;;15.40;99.90;;;;;;5097540;28;20212;-46
2021/08/30 07:17:09;;;;;;;13.30;12.10;;;15.50;99.90;;;;;;5097550;28;20806;-45
2021/08/30 07:19:35;;;;;;;12.60;11.50;;;15.50;99.90;;;;;;5097487;28;20454;-46
2021/08/30 07:22:02;;;;;;;14.40;13.00;;;15.40;99.90;;;;;;5096589;28;20482;-46
2021/08/30 07:24:27;;;;;;;13.73;12.33;;;15.50;99.90;;;;;;5079555;28;20429;-46
2021/08/30 07:26:53;;;;;;;17.10;13.10;;;15.50;99.90;;;;;;5099354;28;20415;-45
2021/08/30 07:29:19;;;;;;;13.33;12.03;;;15.60;99.90;;;;;;5099363;28;20277;-46
2021/08/30 07:31:45;;;;;;;14.37;13.03;;;15.80;99.90;;;;;;5098845;28;20206;-45
2021/08/30 07:34:10;;;;;;;14.13;12.73;;;16.00;99.90;;;;;;5099404;28;20442;-46
2021/08/30 07:36:36;;;;;;;13.27;12.07;;;16.10;99.90;;;;;;5098790;28;20243;-45
2021/08/30 07:39:03;;;;;;;14.53;13.23;;;16.00;99.90;;;;;;5099027;28;20185;-45
2021/08/30 07:41:32;;;;;;;15.13;13.70;;;15.90;99.90;;;;;;5098844;28;20257;-45
2021/08/30 07:43:58;;;;;;;13.30;11.90;;;15.90;99.90;;;;;;5098894;28;20420;-46
2021/08/30 07:46:25;;;;;;;13.90;12.60;;;15.80;99.90;;;;;;5099208;28;20524;-46
2021/08/30 07:48:51;;;;;;;14.67;13.17;;;15.70;99.90;;;;;;5098310;28;20410;-46
2021/08/30 07:51:18;;;;;;;16.40;14.70;;;15.60;99.90;;;;;;5098828;28;20529;-46
2021/08/30 07:53:45;;;;;;;14.00;12.70;;;15.50;99.90;;;;;;5096368;28;20456;-46
2021/08/30 07:56:13;;;;;;;15.10;13.70;;;15.40;99.90;;;;;;5097913;28;20539;-45
2021/08/30 07:58:39;;;;;;;14.70;13.30;;;15.40;99.90;;;;;;5097722;28;20438;-45
2021/08/30 08:01:05;;;;;;;15.85;14.25;;;15.40;99.90;;;;;;5096937;28;20515;-46
2021/08/30 08:03:31;;;;;;;15.20;13.70;;;15.30;99.90;;;;;;5096806;28;20551;-46
2021/08/30 08:05:56;;;;;;;15.03;13.60;;;15.30;99.90;;;;;;5096990;28;20509;-45
2021/08/30 08:08:22;;;;;;;16.47;14.80;;;15.20;99.90;;;;;;5096433;28;20176;-45
2021/08/30 08:10:48;;;;;;;16.00;14.43;;;15.20;99.90;;;;;;5097181;28;20192;-46
2021/08/30 08:13:13;;;;;;;16.17;14.67;;;15.20;99.90;;;;;;5096001;28;20429;-46
2021/08/30 08:15:40;;;;;;;14.87;13.30;;;15.20;99.90;;;;;;5095648;28;20495;-46
2021/08/30 08:18:06;;;;;;;14.63;13.33;;;15.10;99.90;;;;;;5096096;28;20455;-46
2021/08/30 08:20:32;;;;;;;13.10;11.80;;;15.10;99.90;;;;;;5094716;28;20732;-45
2021/08/30 08:22:59;;;;;;;12.70;11.50;;;15.10;99.90;;;;;;5094878;28;20418;-45
2021/08/30 08:25:25;;;;;;;13.33;11.93;;;15.10;99.90;;;;;;5094214;28;20426;-45
2021/08/30 08:27:51;;;;;;;11.83;10.73;;;15.20;99.90;;;;;;5096186;28;20547;-45
2021/08/30 08:30:17;;;;;;;10.80;9.60;;;15.20;99.90;;;;;;5096594;28;20224;-45
2021/08/30 08:32:42;;;;;;;12.10;10.90;;;15.30;99.90;;;;;;5095879;28;20407;-45
2021/08/30 08:35:11;;;;;;;12.93;11.50;;;15.40;99.90;;;;;;5096350;28;20210;-46
2021/08/30 08:37:37;;;;;;;11.00;10.00;;;15.50;99.90;;;;;;5097715;28;20164;-45
2021/08/30 08:40:10;;;;;;;11.77;10.47;;;15.60;99.90;;;;;;5097762;28;20446;-44
2021/08/30 08:42:41;;;;;;;10.40;9.40;;;15.50;99.90;;;;;;5097145;28;20689;-44
2021/08/30 08:45:08;;;;;;;11.00;9.90;;;15.60;99.90;;;;;;5096659;28;20440;-45
2021/08/30 08:47:37;;;;;;;9.60;8.63;;;15.60;99.90;;;;;;5096952;28;20510;-46
2021/08/30 08:50:05;;;;;;;8.90;8.00;;;15.80;99.90;;;;;;5095872;28;20563;-44
2021/08/30 08:52:33;;;;;;;9.38;8.50;;;15.90;99.90;;;;;;5097188;28;20417;-44
2021/08/30 08:55:00;;;;;;;8.37;7.60;;;16.00;99.90;;;;;;5096677;28;20205;-46
2021/08/30 08:57:26;;;;;;;8.40;7.60;;;16.10;99.90;;;;;;5096023;28;20441;-45
2021/08/30 09:00:02;;;;;;;8.33;7.53;;;16.20;99.90;;;;;;5096390;28;20433;-45
2021/08/30 09:02:30;;;;;;;7.60;6.80;;;16.20;99.90;;;;;;5097014;28;20471;-44
2021/08/30 09:04:57;;;;;;;9.52;8.63;;;16.30;99.90;;;;;;5097216;28;20821;-44
2021/08/30 09:07:39;;;;;;;8.80;7.57;;;16.40;99.90;;;;;;5097272;28;20168;-47
2021/08/30 09:10:19;;;;;;;8.70;7.90;;;16.40;99.90;;;;;;5098056;28;20511;-44
2021/08/30 09:12:47;;;;;;;8.97;8.13;;;16.50;99.90;;;;;;5096096;28;20411;-44
2021/08/30 09:15:21;;;;;;;8.80;7.90;;;16.60;99.90;;;;;;5094964;28;20967;-47
2021/08/30 09:17:55;;;;;;;8.37;7.57;;;16.60;99.90;;;;;;5096165;28;20414;-46
2021/08/30 09:20:26;;;;;;;9.33;8.43;;;16.60;99.90;;;;;;5095583;28;20480;-44
2021/08/30 09:22:53;;;;;;;9.40;8.50;;;16.60;99.90;;;;;;5096853;28;20678;-44
2021/08/30 09:25:20;;;;;;;7.68;6.97;;;16.70;99.90;;;;;;5096067;28;20434;-44
2021/08/30 09:27:51;;;;;;;10.03;8.13;;;16.70;99.90;;;;;;5096099;28;20172;-44
2021/08/30 09:30:23;;;;;;;8.47;7.70;;;16.80;99.90;;;;;;5096021;28;20635;-44
2021/08/30 09:32:50;;;;;;;9.30;7.30;;;17.10;99.90;;;;;;5095912;28;20755;-45
2021/08/30 09:35:16;;;;;;;9.73;8.73;;;17.30;99.90;;;;;;5096375;28;20474;-44
2021/08/30 09:37:44;;;;;;;8.80;7.90;;;17.50;99.90;;;;;;5096264;28;20459;-44
2021/08/30 09:40:15;;;;;;;9.20;8.35;;;17.50;99.90;;;;;;5095615;28;20441;-44
2021/08/30 09:42:49;;;;;;;10.23;9.23;;;17.60;99.90;;;;;;5097261;28;20622;-45
2021/08/30 09:45:19;;;;;;;12.33;11.13;;;17.70;99.90;;;;;;5096656;28;20208;-44
2021/08/30 09:47:54;;;;;;;11.93;10.88;;;17.80;99.90;;;;;;5096667;28;20422;-45
2021/08/30 09:50:20;;;;;;;12.23;10.93;;;17.80;99.90;;;;;;5097390;28;20242;-44
2021/08/30 09:52:46;;;;;;;12.50;11.33;;;17.70;99.90;;;;;;5079365;28;20446;-44
2021/08/30 09:55:12;;;;;;;14.60;13.20;;;17.60;99.90;;;;;;5095696;28;20578;-47
2021/08/30 09:57:48;;;;;;;12.90;11.80;;;17.40;99.90;;;;;;5094342;28;20458;-50
2021/08/30 10:00:14;;;;;;;12.60;11.40;;;17.50;99.90;;;;;;5094465;28;20434;-45
2021/08/30 10:02:42;;;;;;;12.43;11.23;;;17.60;99.90;;;;;;5095320;28;20496;-46
2021/08/30 10:05:08;;;;;;;13.40;12.20;;;17.80;99.90;;;;;;5093831;28;20575;-45
2021/08/30 10:07:35;;;;;;;13.53;12.20;;;17.80;99.90;;;;;;5094518;28;20851;-44
2021/08/30 10:10:01;;;;;;;13.30;12.10;;;17.80;99.90;;;;;;5096058;28;20505;-44
2021/08/30 10:12:27;;;;;;;14.65;13.25;;;17.60;99.90;;;;;;5095829;28;20445;-46
2021/08/30 10:14:53;;;;;;;14.07;12.77;;;17.40;99.90;;;;;;5096023;28;20470;-44
2021/08/30 10:17:19;;;;;;;14.23;12.40;;;17.10;99.90;;;;;;5098333;28;20402;-44
2021/08/30 10:19:59;;;;;;;14.70;13.40;;;17.00;99.90;;;;;;5099671;28;20731;-45
2021/08/30 10:22:26;;;;;;;15.80;12.10;;;16.90;99.90;;;;;;5099014;28;20397;-46
2021/08/30 10:24:53;;;;;;;14.73;13.23;;;16.90;99.90;;;;;;5099635;28;20461;-44
2021/08/30 10:27:35;;;;;;;12.97;11.70;;;16.80;99.90;;;;;;5100493;28;20855;-44
2021/08/30 10:30:09;;;;;;;13.27;12.07;;;16.70;99.90;;;;;;5098913;28;20466;-44
2021/08/30 10:32:40;;;;;;;12.70;11.40;;;16.70;99.90;;;;;;5098883;28;20428;-44
2021/08/30 10:35:34;;;;;;;14.10;12.65;;;16.60;99.90;;;;;;5097823;28;20260;-46
2021/08/30 10:38:03;;;;;;;15.80;13.00;;;16.50;99.90;;;;;;5095752;28;20275;-44
2021/08/30 10:40:32;;;;;;;13.80;12.30;;;16.60;99.90;;;;;;5097531;28;20422;-44
2021/08/30 10:43:01;;;;;;;13.57;12.37;;;16.80;99.90;;;;;;5097097;28;20458;-45
2021/08/30 10:45:32;;;;;;;13.93;12.60;;;17.00;99.90;;;;;;5095592;28;20917;-47
2021/08/30 10:48:01;;;;;;;13.30;12.00;;;17.20;99.90;;;;;;5095936;28;20490;-45
2021/08/30 10:50:27;;;;;;;13.33;12.03;;;17.50;99.90;;;;;;5096649;28;20499;-46
2021/08/30 10:53:07;;;;;;;13.90;12.53;;;17.80;99.90;;;;;;5097221;28;20458;-46
2021/08/30 10:55:42;;;;;;;14.23;12.77;;;18.10;99.90;;;;;;5095079;28;20759;-46
2021/08/30 10:58:11;;;;;;;13.43;12.03;;;18.40;99.90;;;;;;5097304;28;20410;-46
2021/08/30 11:00:37;;;;;;;13.47;12.10;;;18.60;99.90;;;;;;5096768;28;20865;-46
2021/08/30 11:03:03;;;;;;;13.63;12.20;;;18.60;99.90;;;;;;5096995;28;20466;-46
2021/08/30 11:05:30;;;;;;;14.03;12.67;;;18.50;99.90;;;;;;5098144;28;20245;-46
2021/08/30 11:07:56;;;;;;;12.50;11.27;;;18.50;99.90;;;;;;5098244;28;20434;-47
2021/08/30 11:10:24;;;;;;;13.83;12.33;;;18.50;99.90;;;;;;5097881;28;20518;-46
2021/08/30 11:12:53;;;;;;;13.30;12.00;;;18.40;99.90;;;;;;5099395;28;20211;-46
2021/08/30 11:15:19;;;;;;;13.30;11.90;;;18.30;99.90;;;;;;5099146;28;20461;-46
2021/08/30 11:17:45;;;;;;;15.57;12.70;;;18.30;99.90;;;;;;5100001;28;20438;-46
2021/08/30 11:20:18;;;;;;;14.80;12.50;;;18.10;99.90;;;;;;5098574;28;20477;-46
2021/08/30 11:22:54;;;;;;;13.73;12.38;;;18.10;99.90;;;;;;5095391;28;20230;-47
2021/08/30 11:25:20;;;;;;;13.70;12.40;;;18.00;99.90;;;;;;5095149;28;20529;-46
2021/08/30 11:27:46;;;;;;;13.10;11.80;;;17.80;99.90;;;;;;5096145;28;20426;-46
2021/08/30 11:30:13;;;;;;;13.43;12.13;;;17.70;99.90;;;;;;5082678;28;20237;-46
2021/08/30 11:32:40;;;;;;;13.30;12.10;;;17.60;99.90;;;;;;5075850;28;20201;-46
2021/08/30 11:35:08;;;;;;;12.67;11.37;;;17.60;99.90;;;;;;5088260;28;20751;-46
2021/08/30 11:37:35;;;;;;;13.03;11.03;;;17.60;99.90;;;;;;5095759;28;20414;-46
2021/08/30 11:40:05;;;;;;;13.70;12.40;;;17.60;99.90;;;;;;5096819;28;20441;-46
2021/08/30 11:42:33;;;;;;;12.83;11.53;;;17.60;99.90;;;;;;5096682;28;20414;-47
2021/08/30 11:45:03;;;;;;;14.67;13.03;;;17.70;99.90;;;;;;5096907;28;20438;-46
2021/08/30 11:47:30;;;;;;;13.47;11.90;;;18.00;99.90;;;;;;5097201;28;20950;-46
2021/08/30 11:49:57;;;;;;;12.32;10.90;;;18.60;99.90;;;;;;5096777;28;20426;-46
2021/08/30 11:52:25;;;;;;;12.73;11.43;;;19.30;99.90;;;;;;5097720;28;20191;-46
2021/08/30 11:55:04;;;;;;;14.17;10.90;;;19.90;99.90;;;;;;5097115;28;21046;-46
2021/08/30 11:57:40;;;;;;;10.50;9.50;;;20.50;99.70;;;;;;5096137;28;20846;-46
2021/08/30 12:00:10;;;;;;;15.10;11.43;;;20.70;99.00;;;;;;5097460;28;20426;-46
2021/08/30 12:02:36;;;;;;;11.60;10.50;;;20.90;98.90;;;;;;5097657;28;20402;-46
2021/08/30 12:05:03;;;;;;;14.43;10.20;;;20.80;98.70;;;;;;5096882;28;20440;-46
2021/08/30 12:07:35;;;;;;;12.07;10.80;;;20.60;98.30;;;;;;5098069;28;20555;-46
2021/08/30 12:10:10;;;;;;;11.03;9.93;;;19.90;98.50;;;;;;5095997;28;20804;-46
2021/08/30 12:12:52;;;;;;;12.07;10.97;;;19.80;99.40;;;;;;5098365;28;20421;-46
2021/08/30 12:15:20;;;;;;;19.80;11.70;;;19.80;99.80;;;;;;5098425;28;20476;-46
2021/08/30 12:17:50;;;;;;;17.20;11.07;;;19.80;99.80;;;;;;5098874;28;20692;-47
2021/08/30 12:20:18;;;;;;;17.40;10.03;;;19.90;99.30;;;;;;5098935;28;20838;-46
2021/08/30 12:22:49;;;;;;;11.40;9.83;;;20.10;99.30;;;;;;5098520;28;20438;-47
2021/08/30 12:25:24;;;;;;;10.40;9.50;;;20.30;99.40;;;;;;5098596;28;20433;-46
2021/08/30 12:27:52;;;;;;;12.10;10.90;;;20.60;97.90;;;;;;5097723;28;20196;-47
2021/08/30 12:30:31;;;;;;;11.67;10.50;;;20.80;98.10;;;;;;5098340;28;20516;-47
2021/08/30 12:33:00;;;;;;;10.93;9.87;;;21.10;97.70;;;;;;5098988;28;20426;-47
2021/08/30 12:35:39;;;;;;;10.60;9.50;;;21.20;96.80;;;;;;5098440;28;20539;-47
2021/08/30 12:38:26;;;;;;;11.50;10.50;;;21.50;96.70;;;;;;5096794;28;20460;-47